Terminal Aerodrome Forecast
Issued by NWS

Home | Current Version | Previous Version | Text Only | Print | Product List | Glossary Off
Versions: 1 2 3 4 5 6 7 8 9 10 11 12 13 14 15 16 17 18 19 20 21 22 23 24

598
FTUS43 KUNR 271120
TAFGCC
TAF
KGCC 271120Z 2712/2812 33006KT P6SM BKN005 OVC015
      TEMPO 2715/2718 SCT005 OVC015
     FM271800 36013KT 3SM -RASN SCT008 OVC018
     FM280200 01005KT P6SM OVC006=

USA.gov is the U.S. government's official web portal to all federal, state and local government web resources and services.